createdAt,value
2022-11-05T00:02:31.249Z,1004.40
2022-11-05T00:07:32.037Z,1004.46
2022-11-05T00:12:32.757Z,1004.53
2022-11-05T00:17:33.507Z,1004.61
2022-11-05T00:22:34.227Z,1004.63
2022-11-05T00:27:34.952Z,1004.67
2022-11-05T00:32:35.692Z,1004.65
2022-11-05T00:37:36.428Z,1004.72
2022-11-05T00:42:37.189Z,1004.77
2022-11-05T00:47:44.912Z,1004.81
2022-11-05T00:52:38.592Z,1004.84
2022-11-05T00:57:39.218Z,1004.88
2022-11-05T01:02:40.115Z,1004.94
2022-11-05T01:07:40.649Z,1004.98
2022-11-05T01:12:41.307Z,1005.05
2022-11-05T01:17:42.068Z,1005.13
2022-11-05T01:22:42.799Z,1005.12
2022-11-05T01:27:43.538Z,1005.16
2022-11-05T01:32:44.271Z,1005.18
2022-11-05T01:37:44.981Z,1005.19
2022-11-05T01:42:45.727Z,1005.23
2022-11-05T01:47:46.563Z,1005.24
2022-11-05T01:52:47.220Z,1005.23
2022-11-05T01:57:47.949Z,1005.25
2022-11-05T02:02:48.757Z,1005.33
2022-11-05T02:07:49.521Z,1005.41
2022-11-05T02:12:50.259Z,1005.50
2022-11-05T02:17:50.970Z,1005.55
2022-11-05T02:22:51.696Z,1005.63
2022-11-05T02:27:52.439Z,1005.70
2022-11-05T02:32:53.185Z,1005.68
2022-11-05T02:37:53.893Z,1005.72
2022-11-05T02:42:54.621Z,1005.82
2022-11-05T02:47:55.358Z,1005.85
2022-11-05T02:52:56.061Z,1005.86
2022-11-05T02:57:56.809Z,1005.90
2022-11-05T03:02:57.677Z,1005.95
2022-11-05T03:07:58.519Z,1006.04
2022-11-05T03:12:59.207Z,1006.14
2022-11-05T03:17:59.931Z,1006.16
2022-11-05T03:23:00.633Z,1006.21
2022-11-05T03:28:01.337Z,1006.25
2022-11-05T03:33:02.073Z,1006.32
2022-11-05T03:38:02.790Z,1006.38
2022-11-05T03:43:03.471Z,1006.43
2022-11-05T03:48:04.196Z,1006.49
2022-11-05T03:53:04.880Z,1006.54
2022-11-05T03:58:05.694Z,1006.59
2022-11-05T04:03:06.515Z,1006.63
2022-11-05T04:08:12.947Z,1006.74
2022-11-05T04:13:09.126Z,1006.85
2022-11-05T04:18:08.619Z,1006.87
2022-11-05T04:23:09.587Z,1006.93
2022-11-05T04:28:09.997Z,1006.97
2022-11-05T04:33:11.032Z,1007.04
2022-11-05T04:38:11.601Z,1007.12
2022-11-05T04:43:15.080Z,1007.12
2022-11-05T04:48:13.087Z,1007.13
2022-11-05T04:53:14.089Z,1007.16
2022-11-05T04:58:14.544Z,1007.13
2022-11-05T05:03:15.250Z,1007.18
2022-11-05T05:08:16.058Z,1007.16
2022-11-05T05:13:16.768Z,1007.19
2022-11-05T05:18:17.601Z,1007.21
2022-11-05T05:23:18.299Z,1007.22
2022-11-05T05:28:19.065Z,1007.30
2022-11-05T05:33:19.760Z,1007.38
2022-11-05T05:38:20.487Z,1007.40
2022-11-05T05:43:21.159Z,1007.51
2022-11-05T05:48:21.792Z,1007.63
2022-11-05T05:53:22.496Z,1007.63
2022-11-05T05:58:23.141Z,1007.67
2022-11-05T06:03:23.820Z,1007.80
2022-11-05T06:08:24.535Z,1007.93
2022-11-05T06:13:25.189Z,1007.97
2022-11-05T06:18:25.975Z,1008.08
2022-11-05T06:23:26.663Z,1008.19
2022-11-05T06:28:27.371Z,1008.25
2022-11-05T06:33:28.012Z,1008.32
2022-11-05T06:38:28.724Z,1008.43
2022-11-05T06:43:29.379Z,1008.54
2022-11-05T06:48:30.033Z,1008.58
2022-11-05T06:53:30.704Z,1008.64
2022-11-05T06:58:31.379Z,1008.70
2022-11-05T07:03:32.017Z,1008.72
2022-11-05T07:08:32.720Z,1008.74
2022-11-05T07:13:33.445Z,1008.81
2022-11-05T07:18:34.133Z,1008.95
2022-11-05T07:23:34.809Z,1009.03
2022-11-05T07:28:35.474Z,1009.17
2022-11-05T07:33:36.816Z,1009.24
2022-11-05T07:38:37.295Z,1009.23
2022-11-05T07:43:37.937Z,1009.18
2022-11-05T07:48:38.568Z,1009.15
2022-11-05T07:53:44.882Z,1009.20
2022-11-05T07:58:40.772Z,1009.23
2022-11-05T08:03:40.718Z,1009.29
2022-11-05T08:08:41.063Z,1009.34
2022-11-05T08:13:41.841Z,1009.38
2022-11-05T08:18:42.673Z,1009.44
2022-11-05T08:23:43.348Z,1009.50
2022-11-05T08:28:44.142Z,1009.61
2022-11-05T08:33:44.768Z,1009.75
2022-11-05T08:38:45.413Z,1009.81
2022-11-05T08:43:46.269Z,1009.78
2022-11-05T08:48:46.965Z,1009.79
2022-11-05T08:53:47.688Z,1009.79
2022-11-05T08:58:48.386Z,1009.90
2022-11-05T09:03:49.056Z,1009.89
2022-11-05T09:08:49.892Z,1009.92
2022-11-05T09:13:50.636Z,1010.06
2022-11-05T09:18:51.396Z,1010.14
2022-11-05T09:23:52.070Z,1010.14
2022-11-05T09:28:52.772Z,1010.18
2022-11-05T09:33:53.425Z,1010.27
2022-11-05T09:38:54.267Z,1010.32
2022-11-05T09:43:54.890Z,1010.36
2022-11-05T09:48:55.580Z,1010.37
2022-11-05T09:53:56.340Z,1010.41
2022-11-05T09:58:57.095Z,1010.45
2022-11-05T10:03:57.857Z,1010.46
2022-11-05T10:08:58.669Z,1010.53
2022-11-05T10:13:59.448Z,1010.53
2022-11-05T10:19:00.297Z,1010.53
2022-11-05T10:24:00.925Z,1010.53
2022-11-05T10:29:01.641Z,1010.56
2022-11-05T10:34:02.452Z,1010.65
2022-11-05T10:39:04.695Z,1010.67
2022-11-05T10:44:03.828Z,1010.67
2022-11-05T10:49:04.765Z,1010.76
2022-11-05T10:54:05.568Z,1010.86
2022-11-05T10:59:11.856Z,1010.88
2022-11-05T11:04:07.953Z,1010.91
2022-11-05T11:09:07.565Z,1010.87
2022-11-05T11:14:08.199Z,1010.87
2022-11-05T11:19:09.943Z,1010.89
2022-11-05T11:24:09.615Z,1010.92
2022-11-05T11:29:10.477Z,1010.89
2022-11-05T11:34:13.227Z,1010.89
2022-11-05T11:39:11.972Z,1010.88
2022-11-05T11:44:12.597Z,1010.90
2022-11-05T11:49:13.322Z,1010.93
2022-11-05T11:54:14.062Z,1010.96
2022-11-05T11:59:14.846Z,1010.94
2022-11-05T12:04:15.468Z,1011.01
2022-11-05T12:09:16.212Z,1010.96
2022-11-05T12:14:17.048Z,1010.95
2022-11-05T12:19:17.765Z,1010.90
2022-11-05T12:24:18.383Z,1010.91
2022-11-05T12:29:19.609Z,1010.93
2022-11-05T12:34:19.824Z,1010.94
2022-11-05T12:39:20.545Z,1010.92
2022-11-05T12:44:21.416Z,1010.94
2022-11-05T12:49:30.234Z,1010.90
2022-11-05T12:54:22.886Z,1010.86
2022-11-05T12:59:23.562Z,1010.89
2022-11-05T13:04:24.320Z,1010.93
2022-11-05T13:09:25.076Z,1010.92
2022-11-05T13:14:25.762Z,1010.93
2022-11-05T13:19:26.584Z,1011.00
2022-11-05T13:24:27.394Z,1011.02
2022-11-05T13:29:28.773Z,1011.07
2022-11-05T13:34:31.212Z,1011.13
2022-11-05T13:39:30.284Z,1011.22
2022-11-05T13:44:30.079Z,1011.27
2022-11-05T13:49:30.916Z,1011.33
2022-11-05T13:54:31.702Z,1011.37
2022-11-05T13:59:32.486Z,1011.35
2022-11-05T14:04:33.249Z,1011.34
2022-11-05T14:09:34.040Z,1011.39
2022-11-05T14:14:34.907Z,1011.46
2022-11-05T14:19:35.690Z,1011.48
2022-11-05T14:24:36.528Z,1011.51
2022-11-05T14:29:37.342Z,1011.49
2022-11-05T14:34:38.126Z,1011.46
2022-11-05T14:39:38.944Z,1011.48
2022-11-05T14:44:39.848Z,1011.52
2022-11-05T14:49:40.515Z,1011.59
2022-11-05T14:54:40.759Z,1011.62
2022-11-05T14:59:41.502Z,1011.69
2022-11-05T15:04:42.191Z,1011.72
2022-11-05T15:09:43.022Z,1011.70
2022-11-05T15:14:43.742Z,1011.69
2022-11-05T15:19:44.432Z,1011.72
2022-11-05T15:24:45.144Z,1011.78
2022-11-05T15:29:45.810Z,1011.79
2022-11-05T15:34:46.597Z,1011.81
2022-11-05T15:39:47.292Z,1011.87
2022-11-05T15:44:47.994Z,1011.88
2022-11-05T15:49:48.872Z,1011.89
2022-11-05T15:54:49.706Z,1011.91
2022-11-05T15:59:50.387Z,1011.96
2022-11-05T16:04:51.074Z,1011.93
2022-11-05T16:09:51.785Z,1011.95
2022-11-05T16:14:52.507Z,1011.99
2022-11-05T16:19:53.233Z,1011.97
2022-11-05T16:24:53.977Z,1011.94
2022-11-05T16:29:54.852Z,1011.95
2022-11-05T16:34:55.547Z,1011.98
2022-11-05T16:39:56.328Z,1012.01
2022-11-05T16:44:57.031Z,1012.07
2022-11-05T16:49:57.789Z,1012.11
2022-11-05T16:54:58.535Z,1012.19
2022-11-05T16:59:59.378Z,1012.25
2022-11-05T17:05:00.206Z,1012.31
2022-11-05T17:10:00.946Z,1012.44
2022-11-05T17:15:01.637Z,1012.57
2022-11-05T17:20:02.357Z,1012.55
2022-11-05T17:25:03.082Z,1012.66
2022-11-05T17:30:03.841Z,1012.70
2022-11-05T17:35:04.611Z,1012.73
2022-11-05T17:40:05.341Z,1012.70
2022-11-05T17:45:06.168Z,1012.76
2022-11-05T17:50:06.881Z,1012.79
2022-11-05T17:55:07.612Z,1012.80
2022-11-05T18:00:08.361Z,1012.85
2022-11-05T18:05:09.067Z,1012.92
2022-11-05T18:10:09.819Z,1012.93
2022-11-05T18:15:10.520Z,1012.92
2022-11-05T18:20:15.875Z,1012.94
2022-11-05T18:25:12.893Z,1012.89
2022-11-05T18:30:12.600Z,1012.81
2022-11-05T18:35:13.439Z,1012.80
2022-11-05T18:40:14.204Z,1012.76
2022-11-05T18:45:14.887Z,1012.80
2022-11-05T18:50:22.627Z,1012.81
2022-11-05T18:55:16.350Z,1012.83
2022-11-05T19:00:17.044Z,1012.83
2022-11-05T19:05:33.188Z,1012.88
2022-11-05T19:10:19.331Z,1012.89
2022-11-05T19:15:19.170Z,1012.85
2022-11-05T19:20:20.041Z,1012.89
2022-11-05T19:25:20.744Z,1012.91
2022-11-05T19:30:21.540Z,1012.91
2022-11-05T19:35:22.384Z,1012.99
2022-11-05T19:40:23.127Z,1012.97
2022-11-05T19:45:43.628Z,1012.94
2022-11-05T19:50:25.569Z,1013.00
2022-11-05T19:55:25.297Z,1012.99
2022-11-05T20:00:25.982Z,1012.95
2022-11-05T20:05:26.735Z,1012.93
2022-11-05T20:10:27.435Z,1012.97
2022-11-05T20:15:28.270Z,1012.99
2022-11-05T20:20:29.001Z,1013.03
2022-11-05T20:25:29.775Z,1013.08
2022-11-05T20:30:30.483Z,1013.14
2022-11-05T20:35:31.308Z,1013.22
2022-11-05T20:40:32.102Z,1013.22
2022-11-05T20:45:32.899Z,1013.27
2022-11-05T20:50:33.640Z,1013.32
2022-11-05T20:55:34.388Z,1013.22
2022-11-05T21:00:35.157Z,1013.17
2022-11-05T21:05:35.953Z,1013.24
2022-11-05T21:10:36.706Z,1013.26
2022-11-05T21:15:37.399Z,1013.25
2022-11-05T21:20:38.217Z,1013.36
2022-11-05T21:25:39.038Z,1013.41
2022-11-05T21:30:39.773Z,1013.40
2022-11-05T21:35:40.572Z,1013.41
2022-11-05T21:40:41.271Z,1013.27
2022-11-05T21:45:42.008Z,1013.26
2022-11-05T21:50:42.780Z,1013.28
2022-11-05T21:55:43.484Z,1013.27
2022-11-05T22:00:44.267Z,1013.20
2022-11-05T22:05:45.173Z,1013.28
2022-11-05T22:10:45.855Z,1013.27
2022-11-05T22:15:46.644Z,1013.22
2022-11-05T22:20:47.391Z,1013.21
2022-11-05T22:25:48.074Z,1013.19
2022-11-05T22:30:48.864Z,1013.22
2022-11-05T22:35:49.595Z,1013.20
2022-11-05T22:40:50.287Z,1013.14
2022-11-05T22:45:50.966Z,1013.15
2022-11-05T22:50:51.671Z,1013.13
2022-11-05T22:55:52.387Z,1013.17
2022-11-05T23:00:53.115Z,1013.21
2022-11-05T23:05:53.882Z,1013.23
2022-11-05T23:10:54.593Z,1013.21
2022-11-05T23:15:55.317Z,1013.22
2022-11-05T23:20:56.069Z,1013.22
2022-11-05T23:25:56.793Z,1013.21
2022-11-05T23:30:57.504Z,1013.21
2022-11-05T23:35:58.269Z,1013.23
2022-11-05T23:40:58.990Z,1013.16
2022-11-05T23:45:59.687Z,1013.06
2022-11-05T23:51:00.441Z,1013.04
2022-11-05T23:56:01.187Z,1013.08
